createdAt,value
2022-09-20T00:01:52.891Z,94982.72
2022-09-20T00:04:21.574Z,94989.97
2022-09-20T00:06:53.091Z,94986.28
2022-09-20T00:09:21.774Z,94986.28
2022-09-20T00:11:52.536Z,94981.06
2022-09-20T00:14:22.567Z,94989.34
2022-09-20T00:16:51.404Z,94990.81
2022-09-20T00:19:22.582Z,94986.22
2022-09-20T00:21:51.324Z,94986.66
2022-09-20T00:24:20.390Z,94982.19
2022-09-20T00:26:49.180Z,94981.22
2022-09-20T00:29:17.897Z,94982.63
2022-09-20T00:31:48.288Z,94988.06
2022-09-20T00:34:34.360Z,94986.56
2022-09-20T00:37:06.209Z,94988.16
2022-09-20T00:39:35.184Z,94987.72
2022-09-20T00:42:03.816Z,94998.28
2022-09-20T00:44:57.317Z,94990.94
2022-09-20T00:47:33.536Z,94986.91
2022-09-20T00:50:12.449Z,94990.09
2022-09-20T00:52:44.008Z,94987.47
2022-09-20T00:55:14.365Z,94989.19
2022-09-20T00:57:44.063Z,94983.91
2022-09-20T01:00:14.484Z,94988.88
2022-09-20T01:02:49.651Z,94989.09
2022-09-20T01:05:20.335Z,94985.91
2022-09-20T01:07:51.732Z,94987.88
2022-09-20T01:10:20.506Z,94983.97
2022-09-20T01:12:51.614Z,94980.88
2022-09-20T01:15:21.884Z,94975.00
2022-09-20T01:17:54.050Z,94981.31
2022-09-20T01:20:26.594Z,94970.28
2022-09-20T01:23:18.297Z,94971.66
2022-09-20T01:26:07.206Z,94970.94
2022-09-20T01:28:37.894Z,94974.88
2022-09-20T01:31:11.844Z,94964.38
2022-09-20T01:33:48.533Z,94966.00
2022-09-20T01:36:23.648Z,94964.06
2022-09-20T01:39:02.656Z,94967.28
2022-09-20T01:41:37.450Z,94970.06
2022-09-20T01:44:15.289Z,94966.72
2022-09-20T01:46:45.171Z,94965.78
2022-09-20T01:49:24.150Z,94973.59
2022-09-20T01:52:31.227Z,94969.84
2022-09-20T01:55:28.787Z,94970.19
2022-09-20T01:59:12.541Z,94967.09
2022-09-20T02:02:10.564Z,94967.88
2022-09-20T02:05:27.316Z,94966.47
2022-09-20T02:08:36.962Z,94966.66
2022-09-20T02:11:10.934Z,94958.94
2022-09-20T02:13:59.959Z,94963.56
2022-09-20T02:16:45.600Z,94964.13
2022-09-20T02:19:34.404Z,94969.28
2022-09-20T02:22:16.204Z,94964.91
2022-09-20T02:24:50.682Z,94967.78
2022-09-20T02:27:28.243Z,94962.50
2022-09-20T02:30:25.741Z,94960.44
2022-09-20T02:33:12.495Z,94966.16
2022-09-20T02:36:00.090Z,94960.78
2022-09-20T02:38:42.793Z,94966.59
2022-09-20T02:41:39.593Z,94956.03
2022-09-20T02:44:16.707Z,94957.66
2022-09-20T02:46:56.426Z,94960.50
2022-09-20T02:49:35.090Z,94949.97
2022-09-20T02:52:19.147Z,94953.41
2022-09-20T02:54:56.996Z,94948.72
2022-09-20T02:57:38.403Z,94951.41
2022-09-20T03:00:11.395Z,94955.59
2022-09-20T03:02:52.132Z,94950.31
2022-09-20T03:05:25.561Z,94959.59
2022-09-20T03:08:17.233Z,94960.50
2022-09-20T03:10:54.044Z,94965.00
2022-09-20T03:13:34.135Z,94970.56
2022-09-20T03:16:10.671Z,94971.31
2022-09-20T03:18:48.341Z,94969.66
2022-09-20T03:21:33.859Z,94974.31
2022-09-20T03:24:17.695Z,94979.25
2022-09-20T03:26:57.943Z,94986.09
2022-09-20T03:29:49.014Z,94982.16
2022-09-20T03:32:32.938Z,94985.72
2022-09-20T03:35:16.847Z,94980.16
2022-09-20T03:38:00.523Z,94977.16
2022-09-20T03:40:58.976Z,94979.94
2022-09-20T03:43:42.722Z,94985.59
2022-09-20T03:46:19.901Z,94981.13
2022-09-20T03:49:23.821Z,94981.63
2022-09-20T03:51:59.948Z,94990.16
2022-09-20T03:54:59.148Z,94976.13
2022-09-20T03:57:42.385Z,94998.81
2022-09-20T04:00:34.037Z,94988.19
2022-09-20T04:03:16.473Z,94990.50
2022-09-20T04:05:57.584Z,94995.34
2022-09-20T04:08:42.143Z,95002.09
2022-09-20T04:11:19.347Z,95001.44
2022-09-20T04:13:56.874Z,95004.66
2022-09-20T04:16:36.684Z,95012.94
2022-09-20T04:19:16.462Z,95000.56
2022-09-20T04:21:53.080Z,95010.97
2022-09-20T04:24:43.231Z,95014.53
2022-09-20T04:27:18.302Z,95015.81
2022-09-20T04:29:54.415Z,95015.09
2022-09-20T04:32:28.622Z,95011.94
2022-09-20T04:35:23.692Z,95014.22
2022-09-20T04:37:54.533Z,95011.94
2022-09-20T04:40:32.927Z,95010.59
2022-09-20T04:43:33.452Z,95015.03
2022-09-20T04:46:38.524Z,95011.69
2022-09-20T04:49:54.616Z,95021.16
2022-09-20T04:52:58.216Z,95029.38
2022-09-20T04:55:45.926Z,95024.94
2022-09-20T04:58:47.113Z,95023.50
2022-09-20T05:02:03.629Z,95028.97
2022-09-20T05:05:07.624Z,95027.94
2022-09-20T05:08:22.099Z,95036.84
2022-09-20T05:11:34.559Z,95037.22
2022-09-20T05:14:33.011Z,95035.81
2022-09-20T05:17:15.010Z,95045.78
2022-09-20T05:20:01.742Z,95045.13
2022-09-20T05:23:16.003Z,95046.94
2022-09-20T05:25:56.829Z,95057.97
2022-09-20T05:28:31.726Z,95052.84
2022-09-20T05:31:07.579Z,95057.59
2022-09-20T05:33:45.136Z,95050.19
2022-09-20T05:36:20.987Z,95061.59
2022-09-20T05:38:57.212Z,95062.06
2022-09-20T05:41:37.183Z,95061.72
2022-09-20T05:44:17.261Z,95066.78
2022-09-20T05:46:56.330Z,95070.19
2022-09-20T05:49:42.188Z,95075.00
2022-09-20T05:52:29.471Z,95066.56
2022-09-20T05:55:21.493Z,95061.50
2022-09-20T05:58:05.071Z,95062.34
2022-09-20T06:00:39.343Z,95057.13
2022-09-20T06:03:17.705Z,95067.75
2022-09-20T06:05:56.923Z,95067.03
2022-09-20T06:08:58.072Z,95059.69
2022-09-20T06:11:56.655Z,95056.50
2022-09-20T06:14:39.559Z,95061.06
2022-09-20T06:17:19.383Z,95058.22
2022-09-20T06:19:52.995Z,95057.38
2022-09-20T06:22:27.909Z,95057.34
2022-09-20T06:25:03.471Z,95053.78
2022-09-20T06:27:37.786Z,95051.09
2022-09-20T06:30:09.599Z,95060.69
2022-09-20T06:32:54.852Z,95055.22
2022-09-20T06:35:25.475Z,95051.94
2022-09-20T06:38:19.155Z,95051.88
2022-09-20T06:41:14.822Z,95057.19
2022-09-20T06:43:45.283Z,95062.28
2022-09-20T06:46:15.746Z,95055.66
2022-09-20T06:48:45.022Z,95062.31
2022-09-20T06:51:14.004Z,95060.84
2022-09-20T06:53:43.783Z,95069.44
2022-09-20T06:56:18.142Z,95061.72
2022-09-20T06:58:48.455Z,95060.25
2022-09-20T07:01:29.005Z,95064.00
2022-09-20T07:03:58.514Z,95063.59
2022-09-20T07:06:28.945Z,95077.06
2022-09-20T07:08:57.730Z,95074.75
2022-09-20T07:11:26.774Z,95086.00
2022-09-20T07:13:58.352Z,95085.19
2022-09-20T07:16:27.893Z,95079.16
2022-09-20T07:18:56.953Z,95079.50
2022-09-20T07:21:25.755Z,95085.47
2022-09-20T07:23:54.640Z,95082.78
2022-09-20T07:26:25.638Z,95085.47
2022-09-20T07:28:54.901Z,95081.44
2022-09-20T07:31:27.709Z,95076.63
2022-09-20T07:33:56.993Z,95079.03
2022-09-20T07:36:25.762Z,95082.50
2022-09-20T07:38:54.718Z,95072.84
2022-09-20T07:41:24.074Z,95071.50
2022-09-20T07:43:52.957Z,95069.91
2022-09-20T07:46:22.319Z,95066.75
2022-09-20T07:48:52.707Z,95068.31
2022-09-20T07:51:21.509Z,95065.66
2022-09-20T07:53:50.514Z,95063.38
2022-09-20T07:56:19.563Z,95063.03
2022-09-20T07:58:52.357Z,95069.13
2022-09-20T08:01:22.944Z,95062.19
2022-09-20T08:03:53.466Z,95057.91
2022-09-20T08:06:22.377Z,95055.41
2022-09-20T08:08:51.883Z,95066.25
2022-09-20T08:11:27.721Z,95066.34
2022-09-20T08:14:06.965Z,95064.75
2022-09-20T08:16:40.344Z,95066.19
2022-09-20T08:19:12.933Z,95061.81
2022-09-20T08:21:41.642Z,95071.13
2022-09-20T08:24:10.307Z,95064.00
2022-09-20T08:26:39.267Z,95064.41
2022-09-20T08:29:08.209Z,95073.28
2022-09-20T08:31:41.667Z,95069.19
2022-09-20T08:34:14.101Z,95065.69
2022-09-20T08:36:46.940Z,95066.09
2022-09-20T08:42:14.562Z,95054.97
2022-09-20T08:45:00.555Z,95048.34
2022-09-20T08:47:32.416Z,95044.66
2022-09-20T08:50:09.794Z,95053.59
2022-09-20T08:52:42.555Z,95048.31
2022-09-20T08:55:17.068Z,95052.91
2022-09-20T08:57:50.455Z,95045.19
2022-09-20T09:00:21.650Z,95042.81
2022-09-20T09:02:53.285Z,95044.41
2022-09-20T09:05:33.863Z,95046.94
2022-09-20T09:08:07.798Z,95045.66
2022-09-20T09:10:43.121Z,95047.63
2022-09-20T09:13:19.844Z,95036.59
2022-09-20T09:15:54.428Z,95027.34
2022-09-20T09:18:23.395Z,95029.41
2022-09-20T09:20:53.662Z,95020.97
2022-09-20T09:23:26.775Z,95025.75
2022-09-20T09:25:57.375Z,95025.56
2022-09-20T09:28:31.459Z,95025.53
2022-09-20T09:31:16.209Z,95022.34
2022-09-20T09:33:47.155Z,95012.41
2022-09-20T09:36:24.859Z,95018.69
2022-09-20T09:39:17.846Z,95011.25
2022-09-20T09:41:46.844Z,95014.72
2022-09-20T09:44:27.917Z,95012.97
2022-09-20T09:46:57.666Z,95018.06
2022-09-20T09:49:27.803Z,95017.13
2022-09-20T09:52:08.327Z,95014.44
2022-09-20T09:54:40.593Z,95020.72
2022-09-20T09:57:23.380Z,95025.69
2022-09-20T10:00:22.492Z,95017.50
2022-09-20T10:03:20.185Z,95015.16
2022-09-20T10:06:06.929Z,95016.50
2022-09-20T10:08:45.966Z,95014.38
2022-09-20T10:11:26.211Z,95009.81
2022-09-20T10:14:06.666Z,94997.00
2022-09-20T10:16:48.316Z,94998.94
2022-09-20T10:19:24.930Z,94999.97
2022-09-20T10:22:02.691Z,94994.53
2022-09-20T10:24:48.496Z,94990.75
2022-09-20T10:27:35.961Z,94985.31
2022-09-20T10:30:12.008Z,95000.06
2022-09-20T10:33:01.880Z,94996.91
2022-09-20T10:35:37.351Z,94993.47
2022-09-20T10:38:19.977Z,94984.84
2022-09-20T10:41:26.762Z,94988.44
2022-09-20T10:44:09.999Z,94991.63
2022-09-20T10:46:58.413Z,94990.28
2022-09-20T10:49:36.274Z,94992.94
2022-09-20T10:52:39.977Z,94982.72
2022-09-20T10:55:14.351Z,94983.16
2022-09-20T10:58:03.618Z,94980.47
2022-09-20T11:00:43.691Z,94985.19
2022-09-20T11:03:24.686Z,94978.22
2022-09-20T11:06:07.707Z,94981.84
2022-09-20T11:08:38.670Z,94977.28
2022-09-20T11:11:12.648Z,94962.25
2022-09-20T11:13:49.532Z,94975.03
2022-09-20T11:16:23.529Z,94962.56
2022-09-20T11:18:59.370Z,94968.69
2022-09-20T11:21:36.867Z,94970.59
2022-09-20T11:24:13.624Z,94964.91
2022-09-20T11:26:47.991Z,94961.34
2022-09-20T11:29:27.737Z,94967.63
2022-09-20T11:32:04.154Z,94972.66
2022-09-20T11:34:38.694Z,94972.88
2022-09-20T11:37:07.519Z,94970.72
2022-09-20T11:39:41.961Z,94958.25
2022-09-20T11:42:16.571Z,94956.88
2022-09-20T11:44:47.664Z,94959.84
2022-09-20T11:47:49.775Z,94948.38
2022-09-20T11:50:48.577Z,94948.31
2022-09-20T11:53:37.148Z,94950.00
2022-09-20T11:56:14.286Z,94943.47
2022-09-20T11:58:49.137Z,94951.84
2022-09-20T12:01:35.963Z,94951.75
2022-09-20T12:04:32.693Z,94953.22
2022-09-20T12:07:10.681Z,94955.44
2022-09-20T12:09:45.629Z,94950.38
2022-09-20T12:12:28.013Z,94953.81
2022-09-20T12:14:58.865Z,94959.03
2022-09-20T12:18:19.418Z,94955.97
2022-09-20T12:21:15.355Z,94950.56
2022-09-20T12:24:21.646Z,94953.97
2022-09-20T12:26:52.917Z,94956.88
2022-09-20T12:30:09.536Z,94957.19
2022-09-20T12:32:50.835Z,94943.91
2022-09-20T12:36:01.248Z,94952.94
2022-09-20T12:38:49.411Z,94950.63
2022-09-20T12:41:28.166Z,94951.75
2022-09-20T12:44:23.834Z,94955.47
2022-09-20T12:46:56.146Z,94944.50
2022-09-20T12:49:59.200Z,94935.00
2022-09-20T12:52:49.829Z,94936.81
2022-09-20T12:55:40.212Z,94936.56
2022-09-20T12:58:29.810Z,94932.13
2022-09-20T13:01:30.402Z,94930.03
2022-09-20T13:04:36.584Z,94926.97
2022-09-20T13:07:42.744Z,94931.34
2022-09-20T13:10:25.310Z,94922.56
2022-09-20T13:13:02.549Z,94926.22
2022-09-20T13:15:33.303Z,94917.88
2022-09-20T13:18:03.439Z,94919.81
2022-09-20T13:20:35.194Z,94922.88
2022-09-20T13:23:06.854Z,94919.66
2022-09-20T13:25:40.508Z,94918.66
2022-09-20T13:28:21.338Z,94913.53
2022-09-20T13:30:50.492Z,94922.66
2022-09-20T13:33:24.410Z,94912.22
2022-09-20T13:35:57.301Z,94918.41
2022-09-20T13:38:30.051Z,94918.19
2022-09-20T13:41:06.414Z,94910.72
2022-09-20T13:43:39.543Z,94913.94
2022-09-20T13:46:09.597Z,94911.97
2022-09-20T13:48:39.052Z,94917.88
2022-09-20T13:51:19.173Z,94903.19
2022-09-20T13:53:48.570Z,94910.94
2022-09-20T13:56:22.798Z,94908.50
2022-09-20T13:58:54.273Z,94909.59
2022-09-20T14:01:28.731Z,94906.66
2022-09-20T14:04:02.835Z,94907.72
2022-09-20T14:06:33.387Z,94902.66
2022-09-20T14:09:10.520Z,94906.88
2022-09-20T14:11:41.547Z,94901.56
2022-09-20T14:14:19.887Z,94894.91
2022-09-20T14:16:51.971Z,94904.50
2022-09-20T14:19:22.632Z,94898.88
2022-09-20T14:21:52.040Z,94893.03
2022-09-20T14:24:35.583Z,94907.50
2022-09-20T14:27:17.102Z,94907.47
2022-09-20T14:29:49.148Z,94922.53
2022-09-20T14:32:39.002Z,94922.78
2022-09-20T14:35:16.391Z,94920.13
2022-09-20T14:37:48.211Z,94923.84
2022-09-20T14:40:42.700Z,94923.59
2022-09-20T14:43:25.907Z,94923.34
2022-09-20T14:45:58.827Z,94925.22
2022-09-20T14:48:40.809Z,94925.75
2022-09-20T14:51:27.586Z,94927.88
2022-09-20T14:54:25.943Z,94922.28
2022-09-20T14:56:57.844Z,94923.06
2022-09-20T14:59:27.943Z,94921.19
2022-09-20T15:02:03.159Z,94927.28
2022-09-20T15:04:33.019Z,94930.47
2022-09-20T15:07:04.259Z,94925.13
2022-09-20T15:09:33.537Z,94922.47
2022-09-20T15:12:04.484Z,94924.31
2022-09-20T15:14:37.409Z,94922.72
2022-09-20T15:17:11.516Z,94918.97
2022-09-20T15:19:40.388Z,94919.75
2022-09-20T15:22:11.211Z,94920.00
2022-09-20T15:24:40.454Z,94920.78
2022-09-20T15:27:11.015Z,94921.34
2022-09-20T15:29:40.092Z,94922.91
2022-09-20T15:32:12.415Z,94917.31
2022-09-20T15:34:41.351Z,94913.59
2022-09-20T15:37:10.250Z,94917.31
2022-09-20T15:39:39.132Z,94915.47
2022-09-20T15:42:08.187Z,94911.44
2022-09-20T15:44:37.097Z,94907.47
2022-09-20T15:47:06.138Z,94904.25
2022-09-20T15:49:36.533Z,94909.59
2022-09-20T15:52:05.471Z,94907.44
2022-09-20T15:54:34.407Z,94914.66
2022-09-20T15:57:04.116Z,94913.81
2022-09-20T15:59:34.766Z,94904.22
2022-09-20T16:02:03.681Z,94913.78
2022-09-20T16:04:35.047Z,94909.78
2022-09-20T16:07:06.163Z,94909.13
2022-09-20T16:09:36.197Z,94911.03
2022-09-20T16:12:05.329Z,94919.50
2022-09-20T16:14:34.432Z,94910.97
2022-09-20T16:17:03.620Z,94911.72
2022-09-20T16:19:32.327Z,94911.22
2022-09-20T16:22:02.184Z,94907.47
2022-09-20T16:24:34.594Z,94917.84
2022-09-20T16:27:04.945Z,94919.38
2022-09-20T16:29:34.975Z,94920.38
2022-09-20T16:32:05.668Z,94923.13
2022-09-20T16:34:36.786Z,94923.31
2022-09-20T16:37:07.777Z,94921.72
2022-09-20T16:39:38.129Z,94921.66
2022-09-20T16:42:09.320Z,94923.22
2022-09-20T16:44:39.627Z,94923.94
2022-09-20T16:47:11.536Z,94926.06
2022-09-20T16:49:41.467Z,94928.97
2022-09-20T16:52:11.301Z,94928.16
2022-09-20T16:54:41.643Z,94939.06
2022-09-20T16:57:11.482Z,94929.72
2022-09-20T16:59:40.947Z,94935.75
2022-09-20T17:02:13.391Z,94935.50
2022-09-20T17:04:43.884Z,94940.81
2022-09-20T17:07:12.892Z,94938.00
2022-09-20T17:09:43.144Z,94944.63
2022-09-20T17:12:12.803Z,94944.63
2022-09-20T17:14:41.617Z,94945.03
2022-09-20T17:17:10.620Z,94946.63
2022-09-20T17:19:39.665Z,94949.44
2022-09-20T17:22:09.322Z,94957.28
2022-09-20T17:24:38.462Z,94953.31
2022-09-20T17:27:09.558Z,94954.06
2022-09-20T17:29:38.448Z,94953.66
2022-09-20T17:32:07.605Z,94950.63
2022-09-20T17:34:36.482Z,94958.81
2022-09-20T17:37:05.704Z,94965.13
2022-09-20T17:39:34.621Z,94962.84
2022-09-20T17:42:03.314Z,94969.78
2022-09-20T17:44:36.990Z,94963.91
2022-09-20T17:47:06.929Z,94962.97
2022-09-20T17:49:37.555Z,94963.91
2022-09-20T17:52:08.218Z,94973.31
2022-09-20T17:54:37.173Z,94979.84
2022-09-20T17:57:06.015Z,94974.72
2022-09-20T17:59:36.851Z,94974.75
2022-09-20T18:02:05.932Z,94976.63
2022-09-20T18:04:35.167Z,94977.63
2022-09-20T18:07:04.417Z,94979.06
2022-09-20T18:09:33.453Z,94982.19
2022-09-20T18:12:02.478Z,94985.09
2022-09-20T18:14:32.738Z,94993.03
2022-09-20T18:17:03.149Z,94990.75
2022-09-20T18:19:34.377Z,94992.75
2022-09-20T18:22:04.054Z,94991.53
2022-09-20T18:24:33.201Z,94980.25
2022-09-20T18:27:02.431Z,94985.25
2022-09-20T18:29:36.782Z,94992.03
2022-09-20T18:32:08.818Z,94988.97
2022-09-20T18:34:37.610Z,94995.91
2022-09-20T18:37:13.819Z,94997.06
2022-09-20T18:39:43.430Z,95000.31
2022-09-20T18:42:12.336Z,94992.63
2022-09-20T18:44:44.045Z,94992.41
2022-09-20T18:47:14.469Z,94994.38
2022-09-20T18:49:43.268Z,95001.34
2022-09-20T18:52:13.214Z,94996.06
2022-09-20T18:54:42.214Z,94995.97
2022-09-20T18:57:11.896Z,94992.50
2022-09-20T18:59:53.441Z,94997.13
2022-09-20T19:02:52.894Z,94998.47
2022-09-20T19:05:28.807Z,94998.03
2022-09-20T19:08:23.270Z,95009.78
2022-09-20T19:10:55.253Z,94995.16
2022-09-20T19:13:37.219Z,94995.59
2022-09-20T19:16:22.397Z,94997.31
2022-09-20T19:19:24.480Z,94998.13
2022-09-20T19:22:00.150Z,95003.66
2022-09-20T19:24:42.430Z,95003.50
2022-09-20T19:27:13.930Z,95013.06
2022-09-20T19:29:43.445Z,95011.38
2022-09-20T19:32:17.616Z,95012.38
2022-09-20T19:34:51.764Z,95013.41
2022-09-20T19:37:30.649Z,95012.38
2022-09-20T19:40:14.244Z,95013.88
2022-09-20T19:42:57.023Z,95013.50
2022-09-20T19:45:36.123Z,95022.31
2022-09-20T19:48:10.427Z,95023.91
2022-09-20T19:50:46.517Z,95026.66
2022-09-20T19:53:17.366Z,95023.44
2022-09-20T19:55:49.723Z,95024.78
2022-09-20T19:58:19.646Z,95021.22
2022-09-20T20:00:49.339Z,95018.75
2022-09-20T20:03:19.140Z,95023.44
2022-09-20T20:05:57.840Z,95016.22
2022-09-20T20:08:36.250Z,95018.38
2022-09-20T20:11:14.419Z,95016.16
2022-09-20T20:14:07.959Z,95022.91
2022-09-20T20:16:49.059Z,95022.09
2022-09-20T20:19:49.376Z,95026.66
2022-09-20T20:22:36.711Z,95029.41
2022-09-20T20:25:06.582Z,95032.91
2022-09-20T20:27:35.296Z,95039.50
2022-09-20T20:30:03.997Z,95041.41
2022-09-20T20:32:32.781Z,95032.53
2022-09-20T20:35:01.531Z,95033.78
2022-09-20T20:37:35.876Z,95031.81
2022-09-20T20:40:05.111Z,95044.22
2022-09-20T20:42:33.999Z,95044.81
2022-09-20T20:45:02.796Z,95031.84
2022-09-20T20:47:31.980Z,95035.06
2022-09-20T20:50:00.699Z,95038.34
2022-09-20T20:52:29.363Z,95035.03
2022-09-20T20:55:00.292Z,95029.53
2022-09-20T20:57:29.875Z,95030.56
2022-09-20T20:59:58.512Z,95030.72
2022-09-20T21:02:27.091Z,95029.47
2022-09-20T21:04:55.891Z,95027.06
2022-09-20T21:07:24.974Z,95038.75
2022-09-20T21:09:53.761Z,95036.81
2022-09-20T21:12:23.891Z,95033.47
2022-09-20T21:14:52.707Z,95036.72
2022-09-20T21:17:21.527Z,95038.75
2022-09-20T21:19:50.249Z,95037.44
2022-09-20T21:22:19.027Z,95042.88
2022-09-20T21:24:47.813Z,95037.44
2022-09-20T21:27:16.570Z,95037.44
2022-09-20T21:29:46.722Z,95041.34
2022-09-20T21:32:15.426Z,95047.25
2022-09-20T21:34:44.088Z,95039.13
2022-09-20T21:37:12.844Z,95047.25
2022-09-20T21:39:41.621Z,95044.81
2022-09-20T21:42:10.327Z,95041.00
2022-09-20T21:44:39.041Z,95037.13
2022-09-20T21:47:09.557Z,95039.25
2022-09-20T21:49:38.442Z,95029.31
2022-09-20T21:52:07.298Z,95037.47
2022-09-20T21:54:36.091Z,95026.69
2022-09-20T21:57:04.972Z,95027.72
2022-09-20T21:59:33.701Z,95027.28
2022-09-20T22:02:02.577Z,95029.19
2022-09-20T22:04:32.898Z,95030.22
2022-09-20T22:07:01.922Z,95030.81
2022-09-20T22:09:30.778Z,95025.38
2022-09-20T22:12:00.158Z,95024.97
2022-09-20T22:14:29.115Z,95016.28
2022-09-20T22:16:59.581Z,95013.88
2022-09-20T22:19:28.354Z,95011.81
2022-09-20T22:21:58.505Z,95017.84
2022-09-20T22:24:27.204Z,95020.75
2022-09-20T22:26:55.950Z,95024.03
2022-09-20T22:29:25.083Z,95024.25
2022-09-20T22:31:53.993Z,95018.75
2022-09-20T22:34:24.925Z,95025.28
2022-09-20T22:36:54.033Z,95018.03
2022-09-20T22:39:24.270Z,95024.16
2022-09-20T22:41:53.175Z,95019.97
2022-09-20T22:44:21.893Z,95019.53
2022-09-20T22:46:50.898Z,95022.22
2022-09-20T22:49:19.638Z,95019.97
2022-09-20T22:51:48.339Z,95022.38
2022-09-20T22:54:17.060Z,95021.72
2022-09-20T22:56:47.248Z,95023.72
2022-09-20T22:59:16.528Z,95028.81
2022-09-20T23:01:46.933Z,95015.84
2022-09-20T23:04:17.383Z,95016.31
2022-09-20T23:06:48.334Z,95022.06
2022-09-20T23:09:19.333Z,95019.47
2022-09-20T23:11:50.656Z,95023.34
2022-09-20T23:14:21.386Z,95027.16
2022-09-20T23:16:50.773Z,95018.06
2022-09-20T23:19:19.769Z,95027.97
2022-09-20T23:21:48.520Z,95028.38
2022-09-20T23:24:17.531Z,95028.28
2022-09-20T23:26:46.616Z,95023.19
2022-09-20T23:29:17.858Z,95028.81
2022-09-20T23:31:48.663Z,95020.06
2022-09-20T23:34:18.288Z,95023.22
2022-09-20T23:36:47.294Z,95023.22
2022-09-20T23:39:16.885Z,95028.94
2022-09-20T23:41:50.611Z,95022.41
2022-09-20T23:44:20.974Z,95025.06
2022-09-20T23:46:49.685Z,95024.41
2022-09-20T23:49:18.407Z,95013.91
2022-09-20T23:51:47.105Z,95021.91
2022-09-20T23:54:15.969Z,95024.53
2022-09-20T23:56:44.733Z,95023.72
2022-09-20T23:59:14.418Z,95024.81
